Time;durP1;ratioP1;P1;durP2;ratioP2;P2;SDS_P1;SDS_P2;PMS_P1;PMS_P2;Temp;Humidity;BMP_temperature;BMP_pressure;BME280_temperature;BME280_humidity;BME280_pressure;Samples;Min_cycle;Max_cycle;Signal;HPM_P1;HPM_P2
2022/08/29 00:00:24;;;;;;;10.97;7.37;;;;;;;22.79;100.00;101166.41;2088194;28;20204;-61
2022/08/29 00:01:25;;;;;;;11.73;7.70;;;;;;;22.66;100.00;101153.97;2086502;28;20200;-62
2022/08/29 00:02:26;;;;;;;14.30;7.43;;;;;;;22.69;100.00;101153.75;2087291;28;20466;-62
2022/08/29 00:03:27;;;;;;;14.77;7.67;;;;;;;22.81;100.00;101177.97;2087288;28;20206;-62
2022/08/29 00:04:28;;;;;;;11.40;7.80;;;;;;;22.81;100.00;101180.03;2087091;28;20241;-62
2022/08/29 00:05:32;;;;;;;12.77;7.97;;;;;;;22.80;100.00;101193.41;2086984;28;20452;-62
2022/08/29 00:06:32;;;;;;;15.80;7.47;;;;;;;22.61;100.00;101171.69;2088003;28;20177;-62
2022/08/29 00:07:33;;;;;;;17.57;7.23;;;;;;;22.82;100.00;101185.19;2087428;28;20517;-62
2022/08/29 00:08:33;;;;;;;12.00;7.07;;;;;;;22.50;100.00;101134.84;2088419;28;20207;-63
2022/08/29 00:09:34;;;;;;;15.10;6.80;;;;;;;22.64;100.00;101168.63;2087963;28;20235;-62
2022/08/29 00:10:36;;;;;;;11.83;7.30;;;;;;;22.63;100.00;101171.94;2087785;28;20199;-62
2022/08/29 00:11:37;;;;;;;11.43;7.13;;;;;;;22.69;100.00;101184.84;2087672;28;20235;-62
2022/08/29 00:12:37;;;;;;;14.53;7.40;;;;;;;22.68;100.00;101185.34;2087599;28;20480;-61
2022/08/29 00:13:38;;;;;;;11.77;7.23;;;;;;;22.70;100.00;101188.41;2087814;28;20195;-62
2022/08/29 00:14:39;;;;;;;11.90;7.73;;;;;;;22.72;100.00;101188.72;2087523;28;20188;-62
2022/08/29 00:15:40;;;;;;;13.10;7.37;;;;;;;22.71;100.00;101189.97;2088068;28;20308;-63
2022/08/29 00:16:41;;;;;;;11.07;7.30;;;;;;;22.70;100.00;101191.25;2087895;28;20245;-61
2022/08/29 00:17:42;;;;;;;16.47;8.37;;;;;;;22.71;100.00;101189.97;2087858;28;20434;-61
2022/08/29 00:18:43;;;;;;;10.30;7.07;;;;;;;22.08;100.00;101098.03;2088182;28;20602;-62
2022/08/29 00:19:43;;;;;;;13.73;6.93;;;;;;;22.68;100.00;101197.41;2088109;28;20450;-61
2022/08/29 00:20:45;;;;;;;13.07;7.87;;;;;;;22.67;100.00;101186.63;2088241;28;20180;-62
2022/08/29 00:21:46;;;;;;;12.20;7.73;;;;;;;22.70;100.00;101199.72;2086933;28;20184;-61
2022/08/29 00:22:47;;;;;;;19.33;8.00;;;;;;;22.71;100.00;101198.44;2087771;28;21002;-62
2022/08/29 00:23:47;;;;;;;11.77;7.53;;;;;;;22.68;100.00;101200.22;2087650;28;20184;-62
2022/08/29 00:24:48;;;;;;;13.27;8.00;;;;;;;22.35;100.00;101146.28;2087242;28;20180;-61
2022/08/29 00:25:49;;;;;;;13.93;7.73;;;;;;;22.64;100.00;101194.06;2087549;28;20184;-61
2022/08/29 00:26:49;;;;;;;11.70;7.73;;;;;;;22.65;100.00;101191.97;2087612;28;20578;-62
2022/08/29 00:27:50;;;;;;;12.33;7.90;;;;;;;22.66;100.00;101190.69;2086329;28;20180;-62
2022/08/29 00:28:51;;;;;;;13.53;7.53;;;;;;;22.59;100.00;101189.13;2087358;28;20637;-62
2022/08/29 00:29:51;;;;;;;19.67;7.50;;;;;;;22.65;100.00;101200.47;2086920;28;20575;-61
2022/08/29 00:30:51;;;;;;;15.33;7.90;;;;;;;22.59;100.00;101191.94;2087926;28;20279;-61
2022/08/29 00:31:52;;;;;;;14.57;8.07;;;;;;;22.57;100.00;101197.31;2087573;28;20768;-61
2022/08/29 00:32:53;;;;;;;12.07;7.90;;;;;;;21.84;100.00;101089.88;2087481;28;20555;-62
2022/08/29 00:33:56;;;;;;;9.97;7.63;;;;;;;22.61;100.00;101191.47;2087611;28;20204;-61
2022/08/29 00:34:56;;;;;;;15.03;8.47;;;;;;;22.61;100.00;101191.47;2087361;28;20172;-62
2022/08/29 00:35:57;;;;;;;14.20;8.13;;;;;;;22.28;100.00;101143.13;2087340;28;20442;-61
2022/08/29 00:36:57;;;;;;;17.07;7.93;;;;;;;22.65;100.00;101204.06;2087671;28;20223;-61
2022/08/29 00:37:59;;;;;;;21.93;9.17;;;;;;;22.64;100.00;101199.69;2087427;28;20276;-60
2022/08/29 00:38:59;;;;;;;15.77;8.20;;;;;;;22.66;100.00;101202.00;2087386;28;20231;-61
2022/08/29 00:40:00;;;;;;;12.67;8.27;;;;;;;22.10;100.00;101118.09;2087845;28;20446;-61
2022/08/29 00:41:02;;;;;;;17.83;8.13;;;;;;;22.63;100.00;101200.19;2088089;28;20196;-61
2022/08/29 00:42:03;;;;;;;17.80;8.27;;;;;;;22.63;100.00;101200.19;2087391;28;20176;-61
2022/08/29 00:43:04;;;;;;;19.43;9.00;;;;;;;22.63;100.00;101203.78;2088563;28;20435;-61
2022/08/29 00:44:05;;;;;;;15.30;8.50;;;;;;;22.62;100.00;101201.47;2087022;28;20200;-62
2022/08/29 00:45:08;;;;;;;12.70;8.57;;;;;;;22.63;100.00;101208.66;2086528;28;20438;-61
2022/08/29 00:46:42;;;;;;;14.37;7.70;;;;;;;22.63;100.00;101200.94;2087467;28;20279;-61
2022/08/29 00:47:49;;;;;;;15.70;7.80;;;;;;;22.65;100.00;101206.09;2087264;28;20176;-62
2022/08/29 00:48:55;;;;;;;19.43;8.60;;;;;;;22.63;100.00;101203.03;2088349;28;20176;-61
2022/08/29 00:49:56;;;;;;;15.37;8.10;;;;;;;22.64;100.00;101196.09;2088240;28;20184;-61
2022/08/29 00:51:02;;;;;;;18.40;8.13;;;;;;;22.64;100.00;101207.38;2087061;28;20193;-62
2022/08/29 00:52:15;;;;;;;13.90;8.10;;;;;;;22.62;100.00;101207.13;2085912;28;20212;-60
2022/08/29 00:53:21;;;;;;;14.10;7.60;;;;;;;22.62;100.00;101204.31;2087928;28;20191;-61
2022/08/29 00:54:24;;;;;;;16.30;7.83;;;;;;;22.63;100.00;101206.59;2087818;28;20184;-61
2022/08/29 00:55:28;;;;;;;13.27;7.83;;;;;;;22.62;100.00;101205.06;2086923;28;20211;-62
2022/08/29 00:56:30;;;;;;;13.10;7.97;;;;;;;22.63;100.00;101198.13;2087641;28;20188;-62
2022/08/29 00:57:31;;;;;;;14.90;8.20;;;;;;;22.67;100.00;101209.97;2085690;28;20189;-61
2022/08/29 00:58:39;;;;;;;15.23;8.13;;;;;;;22.62;100.00;101199.41;2086783;28;20184;-61
2022/08/29 00:59:40;;;;;;;14.40;8.00;;;;;;;22.11;100.00;101125.28;2087758;28;20666;-61
2022/08/29 01:00:43;;;;;;;14.50;8.37;;;;;;;22.67;100.00;101203.56;2087437;28;20188;-62
2022/08/29 01:01:44;;;;;;;20.40;8.00;;;;;;;22.69;100.00;101210.28;2086057;28;20188;-61
2022/08/29 01:02:47;;;;;;;18.00;7.70;;;;;;;22.69;100.00;101210.28;2088261;28;20259;-61
2022/08/29 01:03:48;;;;;;;16.40;8.50;;;;;;;22.71;100.00;101204.09;2087668;28;20246;-61
2022/08/29 01:04:49;;;;;;;18.03;8.63;;;;;;;22.73;100.00;101205.13;2087220;28;20188;-61
2022/08/29 01:05:50;;;;;;;15.43;8.37;;;;;;;22.75;100.00;101204.66;2087079;28;20188;-62
2022/08/29 01:06:52;;;;;;;16.10;8.67;;;;;;;22.75;100.00;101205.44;2087517;28;20302;-62
2022/08/29 01:07:54;;;;;;;17.87;8.23;;;;;;;22.74;100.00;101201.06;2086878;28;20685;-61
2022/08/29 01:08:55;;;;;;;16.70;8.43;;;;;;;22.73;100.00;101202.31;2087438;28;20196;-61
2022/08/29 01:09:55;;;;;;;14.70;8.27;;;;;;;22.74;100.00;101201.06;2087965;28;20210;-61
2022/08/29 01:12:26;;;;;;;13.00;7.40;;;;;;;22.72;100.00;101205.66;2089753;28;20204;-62
2022/08/29 01:13:33;;;;;;;12.00;6.60;;;;;;;22.69;100.00;101210.28;2079209;28;20264;-62
2022/08/29 01:14:35;;;;;;;12.37;6.70;;;;;;;22.67;100.00;101207.16;2087027;28;20185;-61
2022/08/29 01:15:38;;;;;;;11.10;6.80;;;;;;;22.32;100.00;101171.91;2087297;28;20198;-62
2022/08/29 01:16:39;;;;;;;16.30;8.47;;;;;;;22.61;100.00;101197.09;2086511;28;20184;-62
2022/08/29 01:17:44;;;;;;;23.07;9.77;;;;;;;22.56;100.00;101206.31;2086879;28;20669;-61
2022/08/29 01:18:49;;;;;;;19.73;9.27;;;;;;;22.53;100.00;101210.91;2087385;28;20172;-61
2022/08/29 01:20:05;;;;;;;20.00;9.37;;;;;;;22.47;100.00;101210.06;2087743;28;20641;-61
2022/08/29 01:21:17;;;;;;;17.23;8.63;;;;;;;22.42;100.00;101204.34;2086632;28;20198;-61
2022/08/29 01:22:32;;;;;;;21.57;8.40;;;;;;;22.33;100.00;101210.94;2087108;28;20567;-61
2022/08/29 01:23:40;;;;;;;15.93;9.07;;;;;;;22.29;100.00;101206.78;2086769;28;20654;-60
2022/08/29 01:24:49;;;;;;;14.27;8.60;;;;;;;22.23;100.00;101214.44;2086398;28;20176;-62
2022/08/29 01:25:50;;;;;;;17.10;9.70;;;;;;;22.21;100.00;101208.53;2087392;28;20172;-61
2022/08/29 01:26:51;;;;;;;21.87;9.57;;;;;;;22.20;100.00;101212.59;2087670;28;20263;-61
2022/08/29 01:28:02;;;;;;;16.47;8.67;;;;;;;22.17;100.00;101211.56;2087376;28;20283;-61
2022/08/29 01:29:03;;;;;;;19.27;8.70;;;;;;;22.17;100.00;101219.25;2088316;28;20711;-62
2022/08/29 01:30:05;;;;;;;16.70;9.23;;;;;;;22.19;100.00;101222.34;2089380;28;20614;-61
2022/08/29 01:31:11;;;;;;;17.13;10.03;;;;;;;22.16;100.00;101215.66;2087490;28;20195;-61
2022/08/29 01:32:12;;;;;;;16.47;9.50;;;;;;;22.18;100.00;101217.97;2087587;28;20701;-61
2022/08/29 01:33:12;;;;;;;16.57;9.10;;;;;;;22.18;100.00;101215.16;2089362;28;20192;-61
2022/08/29 01:34:15;;;;;;;17.83;9.07;;;;;;;22.18;100.00;101210.28;2088883;28;20458;-61
2022/08/29 01:35:16;;;;;;;17.70;9.03;;;;;;;22.13;100.00;101216.66;2087331;28;20250;-61
2022/08/29 01:36:20;;;;;;;20.67;10.20;;;;;;;21.89;100.00;101179.44;2089023;28;20703;-61
2022/08/29 01:37:21;;;;;;;16.20;9.67;;;;;;;22.13;100.00;101219.47;2087923;28;20189;-61
2022/08/29 01:38:27;;;;;;;18.03;9.80;;;;;;;22.10;100.00;101211.25;2088526;28;21014;-61
2022/08/29 01:39:32;;;;;;;21.87;9.70;;;;;;;22.06;100.00;101214.25;2088005;28;20169;-61
2022/08/29 01:40:34;;;;;;;17.73;9.23;;;;;;;22.07;100.00;101218.66;2088986;28;20191;-62
2022/08/29 01:41:34;;;;;;;20.53;9.83;;;;;;;21.44;100.00;101117.38;2089392;28;20184;-62
2022/08/29 01:42:35;;;;;;;17.67;9.77;;;;;;;22.13;100.00;101224.34;2089580;28;20641;-61
2022/08/29 01:43:44;;;;;;;17.53;9.73;;;;;;;22.11;100.00;101216.34;2089253;28;20199;-61
2022/08/29 01:44:55;;;;;;;15.53;9.07;;;;;;;22.14;100.00;101229.50;2087505;28;20680;-61
2022/08/29 01:45:57;;;;;;;12.07;9.47;;;;;;;21.95;100.00;101197.22;2088018;28;20533;-61
2022/08/29 01:46:59;;;;;;;16.03;9.03;;;;;;;22.11;100.00;101224.06;2089377;28;20564;-62
2022/08/29 01:48:00;;;;;;;15.40;8.93;;;;;;;22.04;100.00;101230.94;2088523;28;21088;-61
2022/08/29 01:49:03;;;;;;;17.23;9.13;;;;;;;22.07;100.00;101221.47;2088728;28;20258;-61
2022/08/29 01:50:11;;;;;;;15.67;8.90;;;;;;;22.05;100.00;101218.34;2089044;28;20325;-61
2022/08/29 01:51:13;;;;;;;16.23;8.53;;;;;;;22.14;100.00;101221.03;2088307;28;20439;-61
2022/08/29 01:52:13;;;;;;;17.33;9.20;;;;;;;22.17;100.00;101225.69;2088459;28;20488;-61
2022/08/29 01:53:15;;;;;;;13.90;8.57;;;;;;;22.18;100.00;101226.44;2088103;28;20431;-62
2022/08/29 01:54:16;;;;;;;13.23;8.87;;;;;;;22.20;100.00;101223.88;2096601;28;20183;-61
2022/08/29 01:55:16;;;;;;;18.90;8.77;;;;;;;22.21;100.00;101223.41;2094408;28;20418;-61
2022/08/29 01:56:17;;;;;;;18.87;8.47;;;;;;;22.24;100.00;101230.88;2088115;28;20959;-62
2022/08/29 01:57:18;;;;;;;13.70;8.40;;;;;;;22.24;100.00;101228.06;2088825;28;20184;-61
2022/08/29 01:58:18;;;;;;;19.23;9.10;;;;;;;21.96;100.00;101186.72;2089015;28;20670;-61
2022/08/29 01:59:22;;;;;;;13.53;9.10;;;;;;;22.23;100.00;101218.03;2087949;28;20195;-61
2022/08/29 02:00:23;;;;;;;18.43;9.13;;;;;;;22.29;100.00;101238.63;2088792;28;20231;-61
2022/08/29 02:01:28;;;;;;;14.40;9.23;;;;;;;22.33;100.00;101227.91;2089444;28;20426;-62
2022/08/29 02:02:29;;;;;;;13.90;8.87;;;;;;;22.32;100.00;101229.16;2089088;28;20569;-61
2022/08/29 02:03:29;;;;;;;15.43;8.50;;;;;;;21.47;100.00;101108.69;2088987;28;20423;-61
2022/08/29 02:04:30;;;;;;;18.40;9.37;;;;;;;22.24;100.00;101230.88;2088557;28;20604;-60
2022/08/29 02:05:31;;;;;;;18.13;9.33;;;;;;;22.20;100.00;101232.34;2088435;28;20204;-61
2022/08/29 02:06:32;;;;;;;18.40;9.63;;;;;;;22.23;100.00;101237.81;2087781;28;20442;-62
2022/08/29 02:07:33;;;;;;;21.13;9.23;;;;;;;22.26;100.00;101238.84;2088461;28;20248;-60
2022/08/29 02:08:34;;;;;;;23.83;9.73;;;;;;;22.27;100.00;101232.69;2089111;28;20434;-61
2022/08/29 02:09:34;;;;;;;18.13;8.93;;;;;;;22.11;100.00;101216.34;2088408;28;20249;-62
2022/08/29 02:10:35;;;;;;;20.50;9.00;;;;;;;22.08;100.00;101202.47;2088089;28;20267;-61
2022/08/29 02:11:36;;;;;;;20.10;9.20;;;;;;;22.29;100.00;101218.09;2088429;28;20188;-61
2022/08/29 02:12:36;;;;;;;20.23;9.50;;;;;;;22.28;100.00;101228.63;2089677;28;20191;-61
2022/08/29 02:13:40;;;;;;;24.83;9.03;;;;;;;22.29;100.00;101221.69;2088602;28;20191;-61
2022/08/29 02:14:41;;;;;;;17.53;8.60;;;;;;;22.30;100.00;101228.09;2088288;28;20200;-61
2022/08/29 02:15:41;;;;;;;18.37;8.63;;;;;;;22.27;100.00;101229.88;2087718;28;20443;-60
2022/08/29 02:16:42;;;;;;;15.57;8.57;;;;;;;22.30;100.00;101233.75;2088204;28;20203;-61
2022/08/29 02:17:42;;;;;;;15.97;8.80;;;;;;;22.29;100.00;101238.63;2087389;28;20226;-61
2022/08/29 02:18:43;;;;;;;17.27;8.43;;;;;;;22.26;100.00;101233.97;2086678;28;20568;-61
2022/08/29 02:19:44;;;;;;;18.63;9.73;;;;;;;22.28;100.00;101234.25;2089061;28;20188;-61
2022/08/29 02:20:45;;;;;;;15.60;9.00;;;;;;;22.27;100.00;101229.13;2088601;28;20882;-61
2022/08/29 02:21:46;;;;;;;17.10;9.00;;;;;;;22.27;100.00;101232.69;2089163;28;20513;-61
2022/08/29 02:22:46;;;;;;;12.70;8.27;;;;;;;22.28;100.00;101234.25;2088704;28;20662;-62
2022/08/29 02:23:48;;;;;;;16.33;8.37;;;;;;;22.28;100.00;101234.25;2088486;28;20196;-62
2022/08/29 02:24:49;;;;;;;13.23;8.07;;;;;;;22.27;100.00;101235.50;2088575;28;20207;-61
2022/08/29 02:25:50;;;;;;;12.20;8.13;;;;;;;22.06;100.00;101211.44;2088942;28;20442;-61
2022/08/29 02:26:51;;;;;;;12.20;7.73;;;;;;;22.19;100.00;101236.47;2088568;28;20228;-62
2022/08/29 02:27:52;;;;;;;13.13;8.70;;;;;;;21.48;100.00;101141.25;2087940;28;20184;-61
2022/08/29 02:28:52;;;;;;;21.57;9.40;;;;;;;22.11;100.00;101243.84;2088943;28;20427;-61
2022/08/29 02:29:53;;;;;;;24.03;9.53;;;;;;;22.08;100.00;101242.78;2088847;28;20239;-61
2022/08/29 02:30:55;;;;;;;21.67;8.47;;;;;;;22.03;100.00;101246.31;2089104;28;20192;-61
2022/08/29 02:31:55;;;;;;;17.30;8.60;;;;;;;22.03;100.00;101242.72;2088693;28;20978;-61
2022/08/29 02:32:55;;;;;;;26.47;9.80;;;;;;;21.99;100.00;101242.94;2088710;28;20517;-61
2022/08/29 02:33:56;;;;;;;25.90;9.77;;;;;;;21.85;100.00;101240.97;2088524;28;20192;-62
2022/08/29 02:34:56;;;;;;;25.80;9.93;;;;;;;21.87;100.00;101248.94;2087777;28;20216;-61
2022/08/29 02:35:58;;;;;;;24.77;10.03;;;;;;;21.81;100.00;101248.84;2088477;28;20231;-61
2022/08/29 02:36:58;;;;;;;25.23;10.00;;;;;;;21.41;100.00;101191.66;2087611;28;20187;-62
2022/08/29 02:37:59;;;;;;;20.53;9.93;;;;;;;21.78;100.00;101257.53;2088173;28;20427;-62
2022/08/29 02:39:00;;;;;;;18.33;8.63;;;;;;;21.69;100.00;101252.81;2089424;28;20222;-62
2022/08/29 02:40:01;;;;;;;18.43;8.93;;;;;;;21.31;100.00;101195.88;2088667;28;20541;-61
2022/08/29 02:41:01;;;;;;;22.00;9.53;;;;;;;21.67;100.00;101274.31;2088295;28;20192;-62
2022/08/29 02:42:03;;;;;;;16.07;9.23;;;;;;;21.03;100.00;101175.78;2089054;28;20196;-61
2022/08/29 02:43:05;;;;;;;12.90;9.23;;;;;;;21.62;100.00;101260.91;2089202;28;20196;-61
2022/08/29 02:44:06;;;;;;;16.57;9.30;;;;;;;21.63;100.00;101259.63;2088222;28;20445;-61
2022/08/29 02:45:07;;;;;;;14.03;9.77;;;;;;;20.79;100.00;101140.56;2087355;28;21024;-63
2022/08/29 02:46:11;;;;;;;15.33;9.80;;;;;;;21.44;100.00;101238.63;2087690;28;20859;-61
2022/08/29 02:47:13;;;;;;;11.87;10.07;;;;;;;21.56;100.00;101268.50;2088638;28;20461;-62
2022/08/29 02:48:14;;;;;;;13.57;9.40;;;;;;;21.50;100.00;101274.06;2088352;28;20502;-62
2022/08/29 02:49:15;;;;;;;16.90;9.70;;;;;;;21.53;100.00;101272.31;2088873;28;20438;-61
2022/08/29 02:50:15;;;;;;;15.13;10.30;;;;;;;21.53;100.00;101264.63;2088351;28;20441;-62
2022/08/29 02:51:22;;;;;;;13.47;10.23;;;;;;;21.54;100.00;101274.66;2088964;28;20184;-62
2022/08/29 02:52:22;;;;;;;16.93;10.20;;;;;;;21.58;100.00;101274.44;2087517;28;20623;-62
2022/08/29 02:53:26;;;;;;;13.93;9.27;;;;;;;21.60;100.00;101272.66;2088686;28;20480;-61
2022/08/29 02:54:27;;;;;;;18.87;10.10;;;;;;;21.58;100.00;101272.41;2086273;28;20273;-62
2022/08/29 02:55:28;;;;;;;18.43;9.30;;;;;;;21.60;100.00;101278.31;2087515;28;20423;-62
2022/08/29 02:56:29;;;;;;;14.27;9.43;;;;;;;21.61;100.00;101274.25;2088113;28;20214;-61
2022/08/29 02:57:29;;;;;;;17.30;10.27;;;;;;;21.54;100.00;101265.41;2088358;28;20180;-61
2022/08/29 02:58:30;;;;;;;14.60;9.50;;;;;;;21.61;100.00;101274.25;2088886;28;20458;-61
2022/08/29 02:59:31;;;;;;;17.47;9.37;;;;;;;21.65;100.00;101274.78;2087963;28;20199;-62
2022/08/29 03:00:32;;;;;;;16.33;9.90;;;;;;;21.63;100.00;101274.50;2087577;28;20196;-62
2022/08/29 03:01:35;;;;;;;13.20;10.33;;;;;;;21.65;100.00;101280.44;2088573;28;20207;-62
2022/08/29 03:02:35;;;;;;;16.10;10.10;;;;;;;21.65;100.00;101282.50;2087389;28;20521;-61
2022/08/29 03:03:36;;;;;;;18.17;10.30;;;;;;;21.68;100.00;101275.84;2088431;28;20462;-62
2022/08/29 03:04:36;;;;;;;22.33;10.57;;;;;;;21.72;100.00;101282.09;2087621;28;20192;-61
2022/08/29 03:05:37;;;;;;;19.83;10.30;;;;;;;21.72;100.00;101280.06;2087867;28;20242;-61
2022/08/29 03:06:37;;;;;;;15.03;9.97;;;;;;;21.73;100.00;101281.59;2088615;28;20188;-61
2022/08/29 03:07:38;;;;;;;17.40;9.90;;;;;;;21.75;100.00;101284.69;2087304;28;20223;-62
2022/08/29 03:08:39;;;;;;;16.93;9.67;;;;;;;21.75;100.00;101281.88;2088570;28;20222;-62
2022/08/29 03:09:40;;;;;;;18.17;9.63;;;;;;;21.76;100.00;101285.47;2088347;28;20189;-61
2022/08/29 03:10:42;;;;;;;12.63;9.77;;;;;;;21.76;100.00;101286.28;2088433;28;20939;-61
2022/08/29 03:11:42;;;;;;;17.67;10.33;;;;;;;21.74;100.00;101285.22;2088526;28;20185;-63
2022/08/29 03:12:43;;;;;;;16.40;10.47;;;;;;;20.90;100.00;101161.25;2088223;28;20639;-62
2022/08/29 03:13:44;;;;;;;19.40;9.50;;;;;;;21.76;100.00;101285.47;2088370;28;20196;-62
2022/08/29 03:14:45;;;;;;;14.93;9.90;;;;;;;21.75;100.00;101287.50;2087625;28;20184;-62
2022/08/29 03:15:46;;;;;;;20.60;10.70;;;;;;;21.02;100.00;101179.88;2088184;28;20513;-61
2022/08/29 03:16:47;;;;;;;15.93;9.13;;;;;;;21.77;100.00;101292.66;2087242;28;20207;-62
2022/08/29 03:17:47;;;;;;;15.97;9.23;;;;;;;21.77;100.00;101303.97;2088001;28;20435;-62
2022/08/29 03:18:48;;;;;;;19.83;9.83;;;;;;;21.80;100.00;101294.50;2088316;28;20188;-62
2022/08/29 03:19:48;;;;;;;13.00;8.03;;;;;;;21.77;100.00;101292.66;2087865;28;20233;-62
2022/08/29 03:20:49;;;;;;;12.70;7.80;;;;;;;21.77;100.00;101292.66;2087831;28;20711;-62
2022/08/29 03:21:50;;;;;;;14.17;7.77;;;;;;;21.76;100.00;101286.28;2088593;28;20630;-61
2022/08/29 03:22:52;;;;;;;18.30;8.40;;;;;;;20.98;100.00;101167.25;2088582;28;20192;-62
2022/08/29 03:23:55;;;;;;;12.70;8.23;;;;;;;21.46;100.00;101253.00;2088361;28;20188;-61
2022/08/29 03:24:55;;;;;;;13.63;8.40;;;;;;;21.69;100.00;101289.50;2087013;28;20488;-62
2022/08/29 03:25:56;;;;;;;12.67;7.63;;;;;;;21.53;100.00;101292.06;2087181;28;20230;-62
2022/08/29 03:26:57;;;;;;;15.23;9.13;;;;;;;21.68;100.00;101292.78;2087726;28;20235;-62
2022/08/29 03:27:58;;;;;;;16.73;9.20;;;;;;;21.68;100.00;101292.78;2086954;28;20661;-61
2022/08/29 03:28:59;;;;;;;13.37;8.13;;;;;;;21.67;100.00;101294.84;2087702;28;20208;-61
2022/08/29 03:29:59;;;;;;;12.73;8.33;;;;;;;21.17;100.00;101225.69;2088321;28;20235;-61
2022/08/29 03:31:00;;;;;;;12.43;9.33;;;;;;;21.68;100.00;101298.41;2088329;28;20263;-62
2022/08/29 03:32:00;;;;;;;15.27;9.00;;;;;;;21.68;100.00;101304.06;2088236;28;20240;-63
2022/08/29 03:33:02;;;;;;;15.00;10.17;;;;;;;21.70;100.00;101305.16;2088881;28;20673;-62
2022/08/29 03:34:03;;;;;;;14.83;9.73;;;;;;;21.72;100.00;101310.31;2087722;28;20566;-61
2022/08/29 03:35:06;;;;;;;16.13;10.00;;;;;;;21.73;100.00;101320.31;2087621;28;20445;-61
2022/08/29 03:36:09;;;;;;;16.07;10.20;;;;;;;21.73;100.00;101317.50;2087461;28;20430;-62
2022/08/29 03:37:09;;;;;;;20.30;10.00;;;;;;;21.75;100.00;101323.44;2088245;28;20442;-62
2022/08/29 03:38:10;;;;;;;17.00;10.40;;;;;;;21.76;100.00;101320.13;2087492;28;20196;-62
2022/08/29 03:39:10;;;;;;;13.43;10.17;;;;;;;21.76;100.00;101316.50;2087265;28;20199;-62
2022/08/29 03:40:12;;;;;;;15.33;10.07;;;;;;;21.78;100.00;101320.41;2087555;28;20740;-61
2022/08/29 03:41:27;;;;;;;21.67;10.60;;;;;;;21.78;100.00;101320.41;2087177;28;20203;-62
2022/08/29 03:42:29;;;;;;;16.37;9.40;;;;;;;21.77;100.00;101324.50;2088103;28;20175;-61
2022/08/29 03:43:29;;;;;;;14.43;9.97;;;;;;;21.76;100.00;101325.78;2088110;28;20974;-61
2022/08/29 03:44:32;;;;;;;15.93;10.03;;;;;;;21.80;100.00;101331.19;2088503;28;20422;-62
2022/08/29 03:45:32;;;;;;;14.60;9.80;;;;;;;21.83;100.00;101321.72;2087799;28;20192;-61
2022/08/29 03:46:35;;;;;;;13.40;10.03;;;;;;;21.86;100.00;101324.34;2088364;28;20438;-62
2022/08/29 03:47:35;;;;;;;17.23;9.80;;;;;;;21.85;100.00;101319.22;2087787;28;20231;-62
2022/08/29 03:48:36;;;;;;;14.83;10.73;;;;;;;21.86;100.00;101318.69;2087579;28;20935;-62
2022/08/29 03:49:36;;;;;;;17.80;9.60;;;;;;;21.05;100.00;101189.38;2088301;28;20200;-62
2022/08/29 03:50:37;;;;;;;14.80;9.97;;;;;;;21.95;100.00;101323.44;2087907;28;20188;-61
2022/08/29 03:51:38;;;;;;;17.90;9.93;;;;;;;21.98;100.00;101328.09;2087565;28;20259;-62
2022/08/29 03:52:39;;;;;;;15.23;9.30;;;;;;;21.95;100.00;101329.84;2087651;28;20196;-61
2022/08/29 03:53:39;;;;;;;16.80;9.47;;;;;;;21.97;100.00;101335.00;2086936;28;20439;-62
2022/08/29 03:54:40;;;;;;;14.87;9.23;;;;;;;21.97;100.00;101330.16;2087647;28;20196;-62
2022/08/29 03:55:41;;;;;;;16.73;8.93;;;;;;;21.86;100.00;101324.34;2087973;28;20187;-62
2022/08/29 03:56:41;;;;;;;15.87;9.77;;;;;;;21.96;100.00;101328.56;2088180;28;20544;-61
2022/08/29 03:57:43;;;;;;;17.33;9.47;;;;;;;21.65;100.00;101282.50;2087021;28;20191;-61
2022/08/29 03:58:43;;;;;;;16.90;9.37;;;;;;;21.99;100.00;101335.28;2087723;28;20271;-63
2022/08/29 03:59:44;;;;;;;19.17;9.40;;;;;;;21.49;100.00;101261.25;2087991;28;21018;-61
2022/08/29 04:00:45;;;;;;;18.10;9.40;;;;;;;22.00;100.00;101331.97;2087910;28;20184;-61
2022/08/29 04:01:47;;;;;;;16.57;8.80;;;;;;;21.99;100.00;101333.25;2085811;28;20669;-61
2022/08/29 04:02:48;;;;;;;16.17;9.10;;;;;;;21.22;100.00;101210.09;2088210;28;20923;-62
2022/08/29 04:03:49;;;;;;;16.53;9.17;;;;;;;22.02;100.00;101332.25;2087348;28;20887;-62
2022/08/29 04:05:08;;;;;;;12.90;8.60;;;;;;;22.02;100.00;101337.13;2087137;28;20192;-62
2022/08/29 04:06:10;;;;;;;17.70;9.40;;;;;;;22.04;100.00;101337.38;2087860;28;20423;-61
2022/08/29 04:07:13;;;;;;;22.93;10.33;;;;;;;22.05;100.00;101336.91;2087555;28;20450;-62
2022/08/29 04:08:14;;;;;;;16.37;9.90;;;;;;;22.06;100.00;101341.28;2087173;28;20443;-62
2022/08/29 04:09:14;;;;;;;24.43;10.47;;;;;;;22.02;100.00;101337.91;2087295;28;20457;-61
2022/08/29 04:10:20;;;;;;;16.00;9.47;;;;;;;22.06;100.00;101346.91;2086706;28;20184;-62
2022/08/29 04:11:23;;;;;;;15.47;9.10;;;;;;;21.90;100.00;101326.97;2086675;28;20291;-61
2022/08/29 04:12:23;;;;;;;14.70;9.00;;;;;;;22.10;100.00;101350.31;2087786;28;20523;-62
2022/08/29 04:13:24;;;;;;;19.47;9.73;;;;;;;22.10;100.00;101346.72;2087394;28;20488;-62
2022/08/29 04:14:25;;;;;;;14.40;9.43;;;;;;;22.11;100.00;101349.03;2087662;28;20271;-61
2022/08/29 04:15:27;;;;;;;15.97;9.60;;;;;;;22.13;100.00;101354.19;2087142;28;20427;-62
2022/08/29 04:16:28;;;;;;;14.07;9.20;;;;;;;22.14;100.00;101352.91;2087536;28;20273;-61
2022/08/29 04:17:28;;;;;;;14.67;9.73;;;;;;;22.12;100.00;101355.47;2087069;28;20951;-62
2022/08/29 04:18:29;;;;;;;13.60;9.43;;;;;;;22.14;100.00;101355.75;2087736;28;20618;-61
2022/08/29 04:19:30;;;;;;;14.00;9.23;;;;;;;22.18;100.00;101356.31;2087623;28;20561;-61
2022/08/29 04:20:34;;;;;;;15.03;9.87;;;;;;;22.17;100.00;101368.88;2086700;28;20258;-61
2022/08/29 04:21:34;;;;;;;13.70;8.97;;;;;;;22.21;100.00;101364.56;2085798;28;20188;-61
2022/08/29 04:22:37;;;;;;;13.10;9.30;;;;;;;22.21;100.00;101363.78;2087743;28;20434;-62
2022/08/29 04:23:38;;;;;;;12.80;9.33;;;;;;;21.72;100.00;101294.16;2086700;28;20184;-61
2022/08/29 04:24:39;;;;;;;14.83;9.27;;;;;;;22.27;100.00;101368.22;2087592;28;20441;-61
2022/08/29 04:25:41;;;;;;;16.27;8.97;;;;;;;21.86;100.00;101295.34;2087118;28;20439;-61
2022/08/29 04:26:42;;;;;;;13.57;9.60;;;;;;;22.35;100.00;101374.22;2087073;28;20361;-61
2022/08/29 04:27:43;;;;;;;18.17;9.60;;;;;;;22.41;100.00;101373.00;2087240;28;20439;-61
2022/08/29 04:28:44;;;;;;;18.23;9.80;;;;;;;22.47;100.00;101368.22;2087838;28;20576;-61
2022/08/29 04:29:47;;;;;;;17.03;9.20;;;;;;;22.49;100.00;101370.56;2086951;28;20192;-61
2022/08/29 04:30:49;;;;;;;12.17;9.43;;;;;;;22.54;100.00;101379.13;2086574;28;20446;-60
2022/08/29 04:31:49;;;;;;;16.17;9.70;;;;;;;22.57;100.00;101369.63;2087830;28;20821;-60
2022/08/29 04:32:50;;;;;;;18.33;9.70;;;;;;;22.59;100.00;101374.78;2087564;28;20422;-61
2022/08/29 04:33:50;;;;;;;14.63;9.90;;;;;;;22.58;100.00;101373.25;2088000;28;20654;-61
2022/08/29 04:34:55;;;;;;;16.53;10.33;;;;;;;22.44;100.00;101348.66;2087064;28;20200;-60
2022/08/29 04:35:55;;;;;;;20.87;9.33;;;;;;;22.62;100.00;101371.72;2086494;28;20687;-61
2022/08/29 04:36:58;;;;;;;21.47;11.23;;;;;;;22.64;100.00;101374.84;2086791;28;20812;-61
2022/08/29 04:37:58;;;;;;;26.93;14.40;;;;;;;22.67;100.00;101376.66;2086978;28;20192;-61
2022/08/29 04:38:59;;;;;;;16.07;10.70;;;;;;;21.93;100.00;101261.06;2086681;28;20436;-61
2022/08/29 04:40:00;;;;;;;20.97;10.37;;;;;;;22.72;100.00;101372.38;2087946;28;20717;-61
2022/08/29 04:41:04;;;;;;;20.47;10.83;;;;;;;21.97;100.00;101259.59;2087700;28;20180;-61
2022/08/29 04:42:05;;;;;;;26.57;11.27;;;;;;;21.69;100.00;101216.16;2086664;28;20459;-61
2022/08/29 04:43:06;;;;;;;18.67;10.00;;;;;;;22.44;100.00;101332.53;2088241;28;20180;-61